Terminal Aerodrome Forecast
Issued by NWS Albany, NY

Home | Current Version | Previous Version | Text Only | Print | Product List | Glossary On
Versions: 1 2 3 4 5 6 7 8 9 10 11 12 13 14 15 16 17 18 19 20 21 22 23 24 25
235
FTUS41 KALY 091720
TAFALB
TAF
KALB 091720Z 0918/1018 30015G25KT P6SM VCSH SCT035 BKN045
      TEMPO 0918/0921 -SHSN BKN035
     FM092100 31012G22KT P6SM SCT025 BKN035
     FM100400 32006KT P6SM SCT035 SCT250
     FM101200 28005KT P6SM FEW020 SCT050 SCT100=

USA.gov is the U.S. government's official web portal to all federal, state and local government web resources and services.